x

New London Ledge Ct - Ledge Light Weather Station (ldlc3) Weather Station

3:45 - Tue 27th Jun 2017 All times are EDT. -4 hours from GMT.

  • Wind
    6mph, 6mph gusts
  • Aire Temp 65°f
  • Sea Pressure 1014.9mb
  • New London Ledge Ct - Ledge Light Weather Station
  • New London Ledge Ct - Ledge Light Weather Station

More Historic Weather Station data

Upgrade to MSW Pro to gain access to the past 30 days of data for over 8000 Wavebouys and Weather Stations around the globe.

Join Pro

Comparision Forecast

View Surf forecast
   
mar 06/27 3:45 6 6 mph 1014.9mb 65f
3:30 5 6 mph 1015.2mb 65f
3:15 6 6 mph 1015.1mb 65f
3:00 5 6 mph 1015.1mb 64f
2:45 7 7 mph 1014.9mb 66f
2:30 7 8 mph 1014.8mb 65f
2:15 8 8 mph 1015mb 66f
2:00 8 9 mph 1014.9mb 66f
1:45 8 8 mph 1014.8mb 66f
1:30 6 8 mph 1014.9mb 66f
1:15 6 6 mph 1015.1mb 67f
1:00 7 8 mph 1015.3mb 67f
lun 06/26 7:45 17 18 mph 1014.7mb 69f
7:15 18 21 mph 1014.4mb 69f
7:00 18 21 mph 1014.4mb 70f
6:45 17 20 mph 1014.5mb 70f
6:30 17 20 mph 1014.4mb 70f
6:15 16 18 mph 1014.3mb 70f
6:00 16 18 mph 1014.2mb 70f
5:45 16 18 mph 1014.2mb 70f
5:30 10 14 mph 1014.5mb 69f
5:15 13 16 mph 1014.7mb 69f
5:00 15 16 mph 1014.6mb 69f
4:45 14 16 mph 1014.6mb 68f
4:30 13 14 mph 1014.6mb 69f
4:15 15 16 mph 1014.7mb 69f
4:00 15 16 mph 1014.6mb 69f
3:45 16 17 mph 1014.7mb 69f
3:30 16 18 mph 1014.7mb 69f
3:15 16 18 mph 1015mb 68f
3:00 14 15 mph 1015.2mb 68f
2:45 13 15 mph 1015.2mb 68f
2:30 9 9 mph 1015.3mb 67f
2:15 10 13 mph 1015.3mb 67f
2:00 13 14 mph 1015.4mb 67f
1:45 15 17 mph 1015.4mb 68f
1:30 13 15 mph 1015.4mb 67f
1:15 14 15 mph 1015.4mb 67f
1:00 11 13 mph 1015.6mb 67f
12:45 14 15 mph 1015.8mb 67f
12:30 14 15 mph 1015.8mb 67f
12:15 13 15 mph 1015.9mb 67f
12:00 14 15 mph 1015.8mb 67f
11:45 15 16 mph 1015.8mb 67f
11:30 14 16 mph 1016mb 67f
11:15 14 15 mph 1016mb 67f
11:00 13 14 mph 1015.9mb 67f
10:45 14 15 mph 1015.9mb 67f
10:30 14 15 mph 1015.8mb 67f
10:15 11 11 mph 1015.8mb 67f
10:00 11 13 mph 1015.8mb 67f
9:45 11 13 mph 1015.9mb 67f
9:30 10 11 mph 1015.8mb 67f
9:15 9 10 mph 1015.9mb 67f
9:00 7 9 mph 1015.9mb 67f
8:45 8 9 mph 1015.8mb 66f
8:30 7 10 mph 1015.9mb 67f
8:15 5 6 mph 1015.7mb 65f
8:00 6 7 mph 1015.8mb 65f
7:45 6 7 mph 1015.9mb 65f
7:30 8 9 mph 1015.9mb 64f
7:15 8 9 mph 1015.8mb 64f
7:00 8 9 mph 1015.7mb 63f
6:45 7 8 mph 1015.5mb 63f
6:30 5 6 mph 1015.4mb 62f
6:15 5 5 mph 1015.3mb 63f
6:00 2 3 mph 1015.1mb 63f
5:45 3 5 mph 1014.9mb 63f
5:30 7 8 mph 1014.7mb 63f
5:15 7 7 mph 1014.6mb 63f
5:00 6 6 mph 1014.3mb 63f
4:45 3 5 mph 1014.2mb 63f
4:30 5 6 mph 1014mb 64f
4:15 2 5 mph 1013.9mb 65f
4:00 7 9 mph 1013.6mb 66f
3:45 5 7 mph 1013.6mb 66f
3:30 11 13 mph 1013.3mb 66f
3:15 13 15 mph 1013.5mb 66f
3:00 13 14 mph 1013.6mb 66f
2:45 13 15 mph 1013.9mb 66f
2:30 18 23 mph 1013.7mb 67f
2:15 16 20 mph 1013.8mb 67f
2:00 13 17 mph 1013.9mb 68f
1:45 14 16 mph 1013.8mb 68f
1:30 11 13 mph 1013.6mb 68f
1:15 10 13 mph 1013.5mb 68f
1:00 9 13 mph 1013.4mb 68f
dom 06/25 7:45 7 9 mph 1013.1mb 69f
7:15 8 9 mph 1013mb 69f
7:00 15 16 mph 1012.7mb 70f
6:45 16 18 mph 1012.7mb 70f
6:30 15 16 mph 1012.6mb 70f
6:15 14 16 mph 1012.5mb 70f
6:00 15 16 mph 1012.5mb 69f
5:45 11 14 mph 1012.6mb 69f
5:30 14 17 mph 1012.5mb 70f
5:15 11 13 mph 1012.8mb 69f
5:00 16 17 mph 1012.7mb 70f
4:45 15 16 mph 1012.7mb 70f
4:30 17 18 mph 1012.6mb 70f
4:15 16 17 mph 1012.7mb 71f
4:00 15 16 mph 1012.7mb 70f
3:45 16 17 mph 1012.7mb 69f
3:30 13 14 mph 1012.9mb 68f
3:15 14 15 mph 1013mb 69f
3:00 11 14 mph 1013.1mb 71f
2:45 14 14 mph 1013.3mb 70f
2:30 10 11 mph 1013.5mb 70f
2:15 10 10 mph 1013.6mb 70f
2:00 14 14 mph 1013.6mb 69f
1:45 11 13 mph 1013.7mb 69f
1:30 14 15 mph 1013.9mb 68f
1:15 13 13 mph 1014.1mb 67f
1:00 14 14 mph 1014.1mb 67f
12:45 13 14 mph 1014.3mb 68f
12:30 13 15 mph 1014.2mb 68f
12:15 15 18 mph 1014.2mb 67f
12:00 9 11 mph 1014.5mb 68f
11:45 15 16 mph 1014.3mb 68f
11:30 13 14 mph 1014.5mb 68f
11:15 14 15 mph 1014.4mb 68f
11:00 15 15 mph 1014.3mb 68f
10:45 14 15 mph 1014.2mb 67f
10:30 13 14 mph 1014.2mb 67f
10:15 11 13 mph 1014.4mb 69f
10:00 11 13 mph 1014.5mb 69f
9:45 11 13 mph 1014.7mb 69f
9:30 10 11 mph 1014.7mb 70f
9:15 9 10 mph 1014.7mb 70f
9:00 8 9 mph 1014.8mb 70f
8:45 7 8 mph 1014.7mb 70f
8:30 6 8 mph 1014.7mb 70f
8:15 3 5 mph 1014.6mb 69f
8:00 2 3 mph 1014.7mb 71f
7:45 2 3 mph 1014.7mb 69f
7:30 3 3 mph 1014.6mb 67f
7:15 3 5 mph 1014.3mb 67f
7:00 2 3 mph 1014.2mb 68f
6:45 1 2 mph 1014.1mb 70f
6:30 2 3 mph 1014mb 69f
6:15 3 5 mph 1013.7mb 68f
6:00 5 6 mph 1013.5mb 67f
5:45 5 7 mph 1013.3mb 66f
5:30 5 7 mph 1013.2mb 65f
5:15 5 7 mph 1013.1mb 65f
5:00 7 8 mph 1012.9mb 65f
4:45 8 9 mph 1012.7mb 66f
4:30 8 8 mph 1012.5mb 66f
4:15 6 7 mph 1012.4mb 67f
4:00 6 7 mph 1012.3mb 68f
3:45 6 7 mph 1012mb 67f
3:30 3 3 mph 1011.9mb 68f
3:15 2 3 mph 1012mb 68f
3:00 3 5 mph 1011.9mb 70f
2:45 7 8 mph 1011.8mb 70f
2:30 9 10 mph 1011.8mb 71f
2:15 8 9 mph 1012mb 70f
2:00 10 11 mph 1011.9mb 71f
1:45 9 10 mph 1011.8mb 71f
1:30 14 18 mph 1011.5mb 72f
1:15 14 16 mph 1011.5mb 71f
1:00 11 14 mph 1011.5mb 72f
sáb 06/24 7:45 8 9 mph 1008.2mb 81f
7:15 9 11 mph 1007.7mb 82f
7:00 13 16 mph 1007.6mb 82f
6:45 10 13 mph 1007.4mb 82f
6:30 13 15 mph 1007.1mb 82f
6:15 16 21 mph 1006.9mb 82f
6:00 13 18 mph 1006.6mb 83f
5:45 21 26 mph 1006.3mb 83f
5:30 18 22 mph 1006.1mb 84f
5:15 18 25 mph 1005.8mb 84f
5:00 22 29 mph 1005.5mb 83f
4:45 22 26 mph 1005.4mb 83f
4:30 16 21 mph 1005.3mb 84f
4:15 20 24 mph 1005.3mb 84f
4:00 25 32 mph 1004.8mb 84f
3:45 25 33 mph 1004.3mb 83f
3:30 20 25 mph 1004.4mb -
3:15 21 25 mph 1004.3mb -
3:00 24 31 mph 1004.1mb -
2:45 25 30 mph 1003.8mb -
2:30 18 28 mph 1003.7mb -
2:15 23 29 mph 1003.6mb -
2:00 22 32 mph 1003.2mb -
1:45 16 20 mph 1003.1mb 71f
1:30 24 29 mph 1002.8mb 68f
1:15 26 30 mph 1002.6mb 68f
1:00 26 29 mph 1002.6mb 68f
12:45 23 28 mph 1002.5mb 68f
12:30 22 24 mph 1002.3mb 68f
12:15 20 22 mph 1002.1mb 68f
12:00 20 22 mph 1002mb 68f
11:45 15 17 mph 1002.1mb 71f
11:30 16 17 mph 1002.1mb 71f
11:15 10 13 mph 1001.8mb 68f
11:00 15 15 mph 1001.7mb 69f
10:45 14 16 mph 1001.8mb 69f
10:30 13 14 mph 1001.4mb 68f
10:15 14 15 mph 1001.6mb 68f
10:00 10 11 mph 1001.6mb 69f
9:45 9 10 mph 1001.5mb 67f
9:30 10 10 mph 1001.3mb 68f
9:15 5 6 mph 1000.8mb 69f
9:00 6 7 mph 1000.7mb 68f
8:45 7 8 mph 1001.2mb 67f
8:30 8 11 mph 1001.4mb 68f
8:15 13 14 mph 1001.9mb 67f
8:00 18 21 mph 1002mb 67f
7:45 16 18 mph 1001.5mb 67f
7:30 14 16 mph 1001.4mb 68f
7:15 16 18 mph 1001.3mb 69f
7:00 16 17 mph 1001.4mb 69f
6:45 20 22 mph 1001.5mb 69f
6:30 18 20 mph 1001.4mb 68f
6:15 20 22 mph 1001.4mb 69f
6:00 18 21 mph 1001.5mb 69f
5:45 17 18 mph 1001.2mb 68f
5:30 18 20 mph 1001.2mb 68f
5:15 16 17 mph 1001.3mb 69f
5:00 18 21 mph 1001mb 70f
4:45 18 20 mph 1001.3mb 70f
4:30 20 21 mph 1001.2mb 70f
4:15 8 14 mph 1001.6mb 68f
4:00 9 11 mph 1001.5mb 69f
3:45 9 10 mph 1001.6mb 68f
3:30 11 13 mph 1001.7mb 69f
3:15 11 16 mph 1001.7mb 70f
3:00 16 21 mph 1001.6mb 70f
2:45 15 20 mph 1001.6mb 70f
2:30 15 21 mph 1001.7mb 71f
2:15 14 16 mph 1002mb 70f
2:00 13 14 mph 1002.2mb 71f
1:45 11 13 mph 1002.5mb 70f
1:30 9 11 mph 1002.5mb 69f
1:15 10 11 mph 1002.8mb 69f
1:00 8 9 mph 1003mb 69f
vie 06/23 7:45 10 11 mph 1004mb 67f
7:15 10 13 mph 1004.2mb 68f
7:00 13 15 mph 1004.2mb 68f
6:45 15 17 mph 1004.4mb 69f
6:30 21 23 mph 1004.2mb 69f
6:15 26 29 mph 1003.9mb 70f
6:00 24 26 mph 1004.1mb 70f
5:45 21 24 mph 1004.2mb 69f
5:30 24 28 mph 1004.2mb 70f
5:15 26 30 mph 1004.2mb 70f
5:00 24 29 mph 1004.3mb 70f
4:45 25 29 mph 1004.3mb 71f
4:30 23 25 mph 1004.5mb 70f
4:15 22 24 mph 1004.7mb 71f
4:00 22 24 mph 1004.9mb 71f
3:45 21 23 mph 1005.2mb 72f
3:30 21 23 mph 1005.3mb 71f
3:15 21 23 mph 1005.4mb 71f
3:00 14 15 mph 1005.7mb 71f
2:45 16 17 mph 1005.8mb 71f
2:30 20 21 mph 1005.9mb 71f
2:15 21 24 mph 1005.9mb 70f
2:00 14 17 mph 1006.3mb 70f
1:45 13 17 mph 1006.7mb 72f
1:30 7 9 mph 1007.1mb 73f
1:15 7 9 mph 1007.1mb 73f
1:00 6 7 mph 1007.5mb 71f
12:45 7 9 mph 1007.6mb 71f
12:30  -  1 mph 1007.8mb 74f
12:15 2 5 mph 1008mb 72f
12:00 3 5 mph 1008.1mb 69f
11:45 7 8 mph 1008.4mb 69f
11:30 7 8 mph 1008.1mb 68f
11:15 8 9 mph 1008.2mb 68f
11:00 9 10 mph 1008.6mb 68f
10:45 7 8 mph 1008.6mb 69f
10:30 7 8 mph 1008.7mb 71f
10:15 5 6 mph 1009mb 71f
10:00 3 3 mph 1009.1mb 72f
9:45 3 3 mph 1009.3mb 71f
9:30 3 5 mph 1009.4mb 70f
9:15 3 5 mph 1009.4mb 71f